createdAt,value
2022-10-26T00:00:50.208Z,99247.51
2022-10-26T00:03:58.216Z,99249.02
2022-10-26T00:07:03.664Z,99248.81
2022-10-26T00:10:11.197Z,99253.86
2022-10-26T00:13:16.709Z,99254.16
2022-10-26T00:16:24.567Z,99255.11
2022-10-26T00:19:30.367Z,99260.28
2022-10-26T00:22:35.918Z,99261.80
2022-10-26T00:25:41.567Z,99257.27
2022-10-26T00:28:47.060Z,99258.65
2022-10-26T00:31:52.668Z,99259.46
2022-10-26T00:35:06.083Z,99263.84
2022-10-26T00:38:21.583Z,99264.31
2022-10-26T00:41:30.249Z,99263.09
2022-10-26T00:45:01.808Z,99263.45
2022-10-26T00:48:12.945Z,99260.80
2022-10-26T00:51:25.597Z,99260.74
2022-10-26T00:54:31.315Z,99261.31
2022-10-26T00:57:39.049Z,99258.63
2022-10-26T01:00:45.302Z,99255.63
2022-10-26T01:03:49.654Z,99260.42
2022-10-26T01:06:56.344Z,99262.80
2022-10-26T01:10:02.674Z,99266.48
2022-10-26T01:13:08.864Z,99268.37
2022-10-26T01:16:22.581Z,99270.27
2022-10-26T01:19:59.744Z,99268.54
2022-10-26T01:23:14.713Z,99273.09
2022-10-26T01:27:02.964Z,99268.00
2022-10-26T01:30:28.278Z,99269.23
2022-10-26T01:33:44.373Z,99269.45
2022-10-26T01:36:56.082Z,99270.49
2022-10-26T01:40:10.577Z,99267.41
2022-10-26T01:43:18.089Z,99269.05
2022-10-26T01:46:25.519Z,99269.38
2022-10-26T01:49:34.297Z,99264.45
2022-10-26T01:52:40.711Z,99263.34
2022-10-26T01:55:50.329Z,99259.88
2022-10-26T01:59:27.815Z,99262.30
2022-10-26T02:02:48.486Z,99262.59
2022-10-26T02:06:08.038Z,99263.64
2022-10-26T02:09:24.773Z,99264.29
2022-10-26T02:12:37.014Z,99264.45
2022-10-26T02:15:49.922Z,99263.91
2022-10-26T02:19:03.105Z,99267.52
2022-10-26T02:22:15.049Z,99270.55
2022-10-26T02:25:24.957Z,99266.74
2022-10-26T02:28:36.493Z,99266.80
2022-10-26T02:31:45.067Z,99273.23
2022-10-26T02:34:52.880Z,99272.20
2022-10-26T02:38:01.334Z,99270.71
2022-10-26T02:41:09.029Z,99271.87
2022-10-26T02:44:21.513Z,99276.60
2022-10-26T02:47:28.069Z,99281.73
2022-10-26T02:50:39.400Z,99283.27
2022-10-26T02:53:51.255Z,99281.44
2022-10-26T02:57:00.637Z,99283.80
2022-10-26T03:00:08.170Z,99285.48
2022-10-26T03:03:14.762Z,99285.34
2022-10-26T03:06:25.149Z,99289.07
2022-10-26T03:09:30.982Z,99288.12
2022-10-26T03:12:36.529Z,99291.55
2022-10-26T03:15:42.715Z,99294.13
2022-10-26T03:18:48.141Z,99293.97
2022-10-26T03:21:53.588Z,99292.28
2022-10-26T03:24:59.103Z,99291.96
2022-10-26T03:28:05.989Z,99292.64
2022-10-26T03:31:11.568Z,99288.04
2022-10-26T03:34:17.016Z,99282.75
2022-10-26T03:37:22.461Z,99284.51
2022-10-26T03:40:28.010Z,99289.61
2022-10-26T03:43:33.430Z,99290.18
2022-10-26T03:46:38.904Z,99290.46
2022-10-26T03:49:44.354Z,99297.34
2022-10-26T03:52:51.365Z,99301.71
2022-10-26T03:55:57.091Z,99302.67
2022-10-26T03:59:02.947Z,99303.66
2022-10-26T04:02:08.396Z,99304.24
2022-10-26T04:05:14.395Z,99301.51
2022-10-26T04:08:20.037Z,99299.71
2022-10-26T04:11:25.554Z,99300.35
2022-10-26T04:14:31.104Z,99301.83
2022-10-26T04:17:36.653Z,99301.64
2022-10-26T04:20:42.940Z,99301.23
2022-10-26T04:23:46.913Z,99298.83
2022-10-26T04:26:52.379Z,99301.48
2022-10-26T04:29:57.929Z,99302.25
2022-10-26T04:33:03.409Z,99303.10
2022-10-26T04:36:10.720Z,99303.41
2022-10-26T04:39:16.527Z,99300.77
2022-10-26T04:42:22.073Z,99299.63
2022-10-26T04:45:31.125Z,99298.41
2022-10-26T04:48:36.858Z,99300.20
2022-10-26T04:51:42.307Z,99302.54
2022-10-26T04:54:48.059Z,99305.45
2022-10-26T04:57:55.984Z,99303.12
2022-10-26T05:01:05.395Z,99304.41
2022-10-26T05:04:11.059Z,99303.90
2022-10-26T05:07:16.606Z,99303.68
2022-10-26T05:10:22.158Z,99305.09
2022-10-26T05:16:38.272Z,99311.66
2022-10-26T05:19:43.720Z,99308.57
2022-10-26T05:22:55.006Z,99315.89
2022-10-26T05:26:00.478Z,99321.83
2022-10-26T05:29:05.972Z,99325.52
2022-10-26T05:32:11.446Z,99332.46
2022-10-26T05:35:17.329Z,99337.30
2022-10-26T05:38:22.991Z,99339.73
2022-10-26T05:41:28.738Z,99341.99
2022-10-26T05:44:34.156Z,99339.73
2022-10-26T05:47:42.316Z,99349.42
2022-10-26T05:50:48.191Z,99352.27
2022-10-26T05:53:55.619Z,99356.20
2022-10-26T05:57:02.293Z,99355.55
2022-10-26T06:00:11.597Z,99354.23
2022-10-26T06:03:32.651Z,99357.13
2022-10-26T06:06:45.259Z,99362.66
2022-10-26T06:09:52.345Z,99363.84
2022-10-26T06:12:58.941Z,99363.14
2022-10-26T06:16:29.351Z,99365.81
2022-10-26T06:19:48.418Z,99364.23
2022-10-26T06:23:06.356Z,99364.11
2022-10-26T06:26:19.226Z,99367.60
2022-10-26T06:29:37.850Z,99367.67
2022-10-26T06:32:45.541Z,99369.38
2022-10-26T06:36:03.382Z,99375.98
2022-10-26T06:39:12.128Z,99382.48
2022-10-26T06:42:18.942Z,99381.48
2022-10-26T06:45:25.805Z,99385.49
2022-10-26T06:48:36.254Z,99387.29
2022-10-26T06:51:48.269Z,99390.09
2022-10-26T06:54:55.800Z,99390.83
2022-10-26T06:58:02.946Z,99395.19
2022-10-26T07:01:11.906Z,99397.28
2022-10-26T07:04:17.482Z,99398.70
2022-10-26T07:07:24.923Z,99403.91
2022-10-26T07:10:30.431Z,99402.49
2022-10-26T07:13:35.974Z,99404.16
2022-10-26T07:16:41.523Z,99408.55
2022-10-26T07:19:46.956Z,99405.93
2022-10-26T07:22:56.760Z,99410.17
2022-10-26T07:26:03.521Z,99412.24
2022-10-26T07:29:09.148Z,99414.01
2022-10-26T07:32:14.589Z,99416.25
2022-10-26T07:35:20.146Z,99417.91
2022-10-26T07:38:26.004Z,99417.58
2022-10-26T07:41:31.477Z,99418.13
2022-10-26T07:44:36.999Z,99421.21
2022-10-26T07:47:42.547Z,99416.33
2022-10-26T07:50:48.009Z,99413.56
2022-10-26T07:53:53.408Z,99412.38
2022-10-26T07:56:59.626Z,99414.37
2022-10-26T08:00:05.101Z,99416.65
2022-10-26T08:03:10.602Z,99413.80
2022-10-26T08:06:16.561Z,99409.31
2022-10-26T08:09:22.008Z,99405.75
2022-10-26T08:12:27.659Z,99404.42
2022-10-26T08:15:33.107Z,99399.58
2022-10-26T08:18:38.560Z,99404.94
2022-10-26T08:21:44.000Z,99409.64
2022-10-26T08:24:49.550Z,99407.82
2022-10-26T08:27:55.613Z,99407.52
2022-10-26T08:31:02.393Z,99408.09
2022-10-26T08:34:07.939Z,99407.11
2022-10-26T08:37:13.383Z,99404.08
2022-10-26T08:40:21.021Z,99402.63
2022-10-26T08:43:34.783Z,99403.86
2022-10-26T08:46:45.739Z,99400.98
2022-10-26T08:49:59.592Z,99398.83
2022-10-26T08:53:14.368Z,99397.02
2022-10-26T08:56:23.065Z,99404.05
2022-10-26T08:59:36.694Z,99402.63
2022-10-26T09:02:42.327Z,99399.85
2022-10-26T09:06:06.410Z,99396.39
2022-10-26T09:09:19.028Z,99395.23
2022-10-26T09:12:35.224Z,99396.81
2022-10-26T09:15:58.284Z,99398.64
2022-10-26T09:19:32.814Z,99398.95
2022-10-26T09:22:48.823Z,99400.58
2022-10-26T09:26:01.627Z,99401.16
2022-10-26T09:29:12.297Z,99398.24
2022-10-26T09:32:20.907Z,99400.45
2022-10-26T09:38:41.335Z,99400.35
2022-10-26T09:41:51.318Z,99402.86
2022-10-26T09:44:59.909Z,99401.79
2022-10-26T09:48:13.397Z,99397.48
2022-10-26T09:51:19.815Z,99392.22
2022-10-26T09:54:25.577Z,99395.06
2022-10-26T09:57:31.669Z,99400.11
2022-10-26T10:00:38.922Z,99396.66
2022-10-26T10:03:44.396Z,99396.11
2022-10-26T10:06:51.658Z,99396.34
2022-10-26T10:10:16.458Z,99394.16
2022-10-26T10:13:25.434Z,99385.39
2022-10-26T10:16:30.937Z,99384.27
2022-10-26T10:19:38.478Z,99387.32
2022-10-26T10:22:57.832Z,99390.28
2022-10-26T10:26:06.212Z,99395.49
2022-10-26T10:29:18.531Z,99395.50
2022-10-26T10:32:25.874Z,99396.72
2022-10-26T10:35:33.191Z,99391.55
2022-10-26T10:38:44.750Z,99388.59
2022-10-26T10:41:50.281Z,99388.15
2022-10-26T10:44:59.197Z,99390.40
2022-10-26T10:48:14.812Z,99389.08
2022-10-26T10:51:25.162Z,99386.08
2022-10-26T10:54:34.286Z,99381.27
2022-10-26T10:57:50.870Z,99377.71
2022-10-26T11:00:57.461Z,99377.09
2022-10-26T11:04:34.177Z,99370.94
2022-10-26T11:07:45.917Z,99363.81
2022-10-26T11:10:55.703Z,99366.51
2022-10-26T11:14:07.460Z,99368.48
2022-10-26T11:17:19.769Z,99366.30
2022-10-26T11:20:30.439Z,99367.00
2022-10-26T11:23:43.189Z,99367.06
2022-10-26T11:26:54.002Z,99367.48
2022-10-26T11:30:06.986Z,99368.28
2022-10-26T11:33:18.132Z,99369.80
2022-10-26T11:36:30.379Z,99373.09
2022-10-26T11:39:43.568Z,99372.45
2022-10-26T11:42:56.816Z,99368.92
2022-10-26T11:46:08.333Z,99370.30
2022-10-26T11:49:20.697Z,99378.79
2022-10-26T11:52:30.956Z,99380.20
2022-10-26T11:55:36.812Z,99381.19
2022-10-26T11:58:44.060Z,99380.91
2022-10-26T12:01:52.209Z,99379.11
2022-10-26T12:05:03.708Z,99379.67
2022-10-26T12:08:15.807Z,99375.85
2022-10-26T12:11:36.257Z,99374.61
2022-10-26T12:14:47.537Z,99377.54
2022-10-26T12:18:02.149Z,99378.98
2022-10-26T12:21:09.789Z,99381.16
2022-10-26T12:24:35.500Z,99381.19
2022-10-26T12:27:58.475Z,99379.36
2022-10-26T12:31:34.797Z,99369.63
2022-10-26T12:35:05.642Z,99369.02
2022-10-26T12:38:56.657Z,99369.95
2022-10-26T12:42:30.369Z,99370.94
2022-10-26T12:45:35.984Z,99369.89
2022-10-26T12:48:44.603Z,99365.92
2022-10-26T12:51:51.448Z,99365.04
2022-10-26T12:55:31.822Z,99365.47
2022-10-26T12:59:14.737Z,99367.21
2022-10-26T13:02:41.661Z,99369.73
2022-10-26T13:06:19.568Z,99369.68
2022-10-26T13:09:28.834Z,99371.22
2022-10-26T13:12:48.493Z,99375.94
2022-10-26T13:15:58.357Z,99373.61
2022-10-26T13:19:04.201Z,99374.19
2022-10-26T13:22:17.276Z,99374.19
2022-10-26T13:25:26.365Z,99377.25
2022-10-26T13:28:45.315Z,99374.63
2022-10-26T13:31:57.799Z,99375.61
2022-10-26T13:35:05.322Z,99378.17
2022-10-26T13:38:12.925Z,99379.38
2022-10-26T13:41:34.065Z,99378.14
2022-10-26T13:44:45.836Z,99379.27
2022-10-26T13:47:57.345Z,99379.92
2022-10-26T13:51:07.522Z,99379.52
2022-10-26T13:54:22.709Z,99380.77
2022-10-26T13:57:35.165Z,99384.02
2022-10-26T14:00:40.949Z,99389.24
2022-10-26T14:03:45.651Z,99388.86
2022-10-26T14:06:52.783Z,99385.08
2022-10-26T14:09:59.796Z,99386.23
2022-10-26T14:13:10.284Z,99383.13
2022-10-26T14:16:20.489Z,99383.58
2022-10-26T14:19:30.805Z,99383.45
2022-10-26T14:22:36.354Z,99388.21
2022-10-26T14:25:42.357Z,99384.92
2022-10-26T14:28:55.877Z,99386.52
2022-10-26T14:32:01.400Z,99390.14
2022-10-26T14:35:12.304Z,99394.94
2022-10-26T14:38:23.149Z,99399.00
2022-10-26T14:41:30.216Z,99399.96
2022-10-26T14:44:39.489Z,99399.45
2022-10-26T14:47:49.772Z,99401.16
2022-10-26T14:51:02.882Z,99404.92
2022-10-26T14:54:22.871Z,99406.94
2022-10-26T14:57:37.074Z,99406.05
2022-10-26T15:00:43.441Z,99410.17
2022-10-26T15:03:53.660Z,99412.05
2022-10-26T15:07:10.813Z,99414.14
2022-10-26T15:10:48.678Z,99415.70
2022-10-26T15:13:54.973Z,99421.36
2022-10-26T15:17:01.437Z,99422.61
2022-10-26T15:20:15.514Z,99424.88
2022-10-26T15:23:22.268Z,99429.75
2022-10-26T15:26:28.286Z,99429.11
2022-10-26T15:29:39.923Z,99434.27
2022-10-26T15:32:45.627Z,99434.60
2022-10-26T15:35:51.326Z,99438.60
2022-10-26T15:38:57.272Z,99439.27
2022-10-26T15:42:02.788Z,99442.59
2022-10-26T15:45:18.262Z,99443.77
2022-10-26T15:48:29.086Z,99450.90
2022-10-26T15:51:35.614Z,99454.28
2022-10-26T15:54:41.167Z,99451.68
2022-10-26T15:57:47.200Z,99453.47
2022-10-26T16:00:53.263Z,99457.70
2022-10-26T16:03:58.933Z,99461.44
2022-10-26T16:07:05.969Z,99460.92
2022-10-26T16:10:23.250Z,99463.52
2022-10-26T16:13:28.798Z,99461.46
2022-10-26T16:16:34.351Z,99467.04
2022-10-26T16:19:39.899Z,99466.65
2022-10-26T16:22:48.501Z,99470.54
2022-10-26T16:25:53.966Z,99473.98
2022-10-26T16:28:59.408Z,99471.42
2022-10-26T16:32:04.962Z,99475.55
2022-10-26T16:35:12.362Z,99479.25
2022-10-26T16:38:17.904Z,99479.20
2022-10-26T16:44:33.687Z,99487.26
2022-10-26T16:47:40.246Z,99487.94
2022-10-26T16:50:45.735Z,99492.73
2022-10-26T16:53:52.964Z,99498.31
2022-10-26T16:56:58.575Z,99500.23
2022-10-26T17:00:04.330Z,99501.81
2022-10-26T17:03:09.736Z,99501.77
2022-10-26T17:06:15.736Z,99505.14
2022-10-26T17:09:21.125Z,99506.36
2022-10-26T17:15:36.992Z,99512.31
2022-10-26T17:18:43.681Z,99516.15
2022-10-26T17:21:49.118Z,99527.04
2022-10-26T17:24:54.668Z,99529.65
2022-10-26T17:28:00.318Z,99525.16
2022-10-26T17:31:07.868Z,99527.42
2022-10-26T17:34:13.309Z,99532.35
2022-10-26T17:37:18.899Z,99536.67
2022-10-26T17:40:24.465Z,99543.66
2022-10-26T17:43:32.517Z,99543.20
2022-10-26T17:46:37.941Z,99546.28
2022-10-26T17:49:43.369Z,99550.54
2022-10-26T17:52:48.921Z,99551.31
2022-10-26T17:56:02.989Z,99553.01
2022-10-26T17:59:12.649Z,99555.26
2022-10-26T18:02:18.242Z,99557.55
2022-10-26T18:05:23.854Z,99561.06
2022-10-26T18:08:33.044Z,99559.52
2022-10-26T18:11:38.798Z,99564.96
2022-10-26T18:14:44.347Z,99565.78
2022-10-26T18:17:56.732Z,99571.27
2022-10-26T18:21:06.859Z,99572.98
2022-10-26T18:24:12.570Z,99575.18
2022-10-26T18:27:20.294Z,99575.91
2022-10-26T18:30:26.900Z,99575.10
2022-10-26T18:33:32.949Z,99574.83
2022-10-26T18:36:39.068Z,99577.04
2022-10-26T18:39:42.981Z,99574.83
2022-10-26T18:42:48.527Z,99584.79
2022-10-26T18:45:54.281Z,99587.11
2022-10-26T18:49:01.342Z,99590.93
2022-10-26T18:52:10.262Z,99595.16
2022-10-26T18:55:15.751Z,99600.40
2022-10-26T18:58:21.204Z,99602.46
2022-10-26T19:01:28.598Z,99602.95
2022-10-26T19:04:34.338Z,99606.70
2022-10-26T19:07:40.137Z,99609.41
2022-10-26T19:10:45.648Z,99608.41
2022-10-26T19:13:52.896Z,99609.88
2022-10-26T19:16:58.378Z,99614.92
2022-10-26T19:20:03.970Z,99616.00
2022-10-26T19:23:09.887Z,99621.48
2022-10-26T19:26:17.486Z,99629.58
2022-10-26T19:29:24.733Z,99635.50
2022-10-26T19:32:30.940Z,99636.29
2022-10-26T19:38:42.094Z,99644.01
2022-10-26T19:41:46.606Z,99647.15
2022-10-26T19:44:52.113Z,99653.06
2022-10-26T19:47:58.379Z,99658.48
2022-10-26T19:51:02.289Z,99658.34
2022-10-26T19:54:08.046Z,99662.67
2022-10-26T19:57:13.588Z,99664.21
2022-10-26T20:00:20.085Z,99667.98
2022-10-26T20:03:26.658Z,99667.75
2022-10-26T20:06:32.295Z,99671.73
2022-10-26T20:09:37.738Z,99676.46
2022-10-26T20:12:43.184Z,99677.53
2022-10-26T20:15:49.909Z,99679.64
2022-10-26T20:18:55.410Z,99684.33
2022-10-26T20:22:00.945Z,99684.90
2022-10-26T20:25:07.604Z,99681.09
2022-10-26T20:28:13.761Z,99685.63
2022-10-26T20:31:17.639Z,99685.25
2022-10-26T20:34:23.115Z,99689.44
2022-10-26T20:37:29.830Z,99691.94
2022-10-26T20:40:36.950Z,99688.11
2022-10-26T20:43:43.858Z,99685.83
2022-10-26T20:46:51.256Z,99686.96
2022-10-26T20:49:57.768Z,99692.96
2022-10-26T20:53:12.005Z,99694.23
2022-10-26T20:56:23.820Z,99692.60
2022-10-26T20:59:36.539Z,99698.66
2022-10-26T21:02:41.980Z,99698.27
2022-10-26T21:05:48.951Z,99698.20
2022-10-26T21:08:55.757Z,99700.89
2022-10-26T21:12:01.225Z,99706.72
2022-10-26T21:15:08.481Z,99708.77
2022-10-26T21:18:13.920Z,99708.18
2022-10-26T21:21:19.374Z,99705.06
2022-10-26T21:24:24.886Z,99705.58
2022-10-26T21:27:30.508Z,99713.55
2022-10-26T21:30:36.227Z,99715.95
2022-10-26T21:33:42.321Z,99719.00
2022-10-26T21:36:47.839Z,99715.54
2022-10-26T21:39:53.285Z,99716.85
2022-10-26T21:42:58.832Z,99719.83
2022-10-26T21:46:04.699Z,99718.00
2022-10-26T21:49:10.137Z,99720.27
2022-10-26T21:52:15.688Z,99720.60
2022-10-26T21:55:21.236Z,99725.02
2022-10-26T21:58:26.683Z,99725.84
2022-10-26T22:01:32.305Z,99729.89
2022-10-26T22:04:38.806Z,99732.81
2022-10-26T22:07:44.388Z,99734.86
2022-10-26T22:10:49.767Z,99738.89
2022-10-26T22:13:55.715Z,99738.44
2022-10-26T22:17:01.110Z,99735.27
2022-10-26T22:20:08.152Z,99739.48
2022-10-26T22:23:13.642Z,99741.17
2022-10-26T22:26:21.240Z,99744.58
2022-10-26T22:29:26.654Z,99746.15
2022-10-26T22:32:32.132Z,99751.71
2022-10-26T22:35:37.679Z,99755.88
2022-10-26T22:38:43.810Z,99760.97
2022-10-26T22:41:50.519Z,99762.33
2022-10-26T22:44:55.953Z,99765.60
2022-10-26T22:48:01.567Z,99765.16
2022-10-26T22:51:12.111Z,99765.12
2022-10-26T22:54:17.866Z,99763.67
2022-10-26T22:57:23.387Z,99765.30
2022-10-26T23:00:28.806Z,99762.67
2022-10-26T23:03:34.382Z,99762.13
2022-10-26T23:06:40.036Z,99764.60
2022-10-26T23:09:45.586Z,99760.21
2022-10-26T23:12:54.179Z,99760.51
2022-10-26T23:16:07.869Z,99760.75
2022-10-26T23:19:13.789Z,99759.73
2022-10-26T23:22:19.210Z,99759.86
2022-10-26T23:25:24.698Z,99759.72
2022-10-26T23:28:30.350Z,99757.94
2022-10-26T23:31:35.736Z,99763.02
2022-10-26T23:34:41.146Z,99762.42
2022-10-26T23:37:46.662Z,99761.84
2022-10-26T23:40:53.848Z,99761.50
2022-10-26T23:43:59.429Z,99757.20
2022-10-26T23:47:04.839Z,99758.48
2022-10-26T23:50:11.275Z,99758.06
2022-10-26T23:53:19.354Z,99771.53
2022-10-26T23:56:24.811Z,99773.03
2022-10-26T23:59:30.302Z,99774.67
